Time;durP1;ratioP1;P1;durP2;ratioP2;P2;SDS_P1;SDS_P2;PMS_P1;PMS_P2;Temp;Humidity;BMP_temperature;BMP_pressure;BME280_temperature;BME280_humidity;BME280_pressure;Samples;Min_cycle;Max_cycle;Signal;HPM_P1;HPM_P2
2022/03/26 00:00:05;;;;;;;0.70;0.70;;;;;;;5.69;84.16;102300.34;5074266;28;20442;-72
2022/03/26 00:02:32;;;;;;;3.40;3.27;;;;;;;5.67;85.34;102304.34;5073773;28;20994;-72
2022/03/26 00:04:58;;;;;;;0.40;0.30;;;;;;;5.63;85.96;102303.97;5074074;28;20445;-72
2022/03/26 00:07:25;;;;;;;3.33;3.13;;;;;;;5.56;87.09;102305.91;5073898;28;20461;-71
2022/03/26 00:09:51;;;;;;;0.40;0.30;;;;;;;5.60;86.75;102307.09;5073980;28;20444;-72
2022/03/26 00:12:17;;;;;;;0.57;0.57;;;;;;;5.55;87.22;102302.38;5073962;28;20453;-72
2022/03/26 00:14:44;;;;;;;0.40;0.30;;;;;;;5.56;87.23;102303.22;5073593;28;20966;-72
2022/03/26 00:17:12;;;;;;;3.33;3.13;;;;;;;5.59;86.79;102300.09;5073885;28;20457;-71
2022/03/26 00:19:38;;;;;;;2.00;1.90;;;;;;;5.62;86.80;102302.28;5073864;28;20880;-72
2022/03/26 00:22:05;;;;;;;0.63;0.63;;;;;;;5.60;86.53;102293.66;5073813;28;20514;-71
2022/03/26 00:24:32;;;;;;;2.00;1.90;;;;;;;5.60;86.21;102304.41;5073637;28;20484;-71
2022/03/26 00:26:58;;;;;;;0.77;0.77;;;;;;;5.54;86.12;102295.38;5073292;28;20943;-71
2022/03/26 00:29:24;;;;;;;0.40;0.30;;;;;;;5.47;86.28;102300.00;5073615;28;20449;-71
2022/03/26 00:31:51;;;;;;;0.50;0.50;;;;;;;5.42;85.30;102296.34;5073338;28;20813;-71
2022/03/26 00:34:19;;;;;;;2.30;2.20;;;;;;;5.40;84.63;102295.72;5073251;28;20993;-72
2022/03/26 00:36:45;;;;;;;0.40;0.30;;;;;;;5.28;84.72;102284.94;5073591;28;20532;-72
2022/03/26 00:39:12;;;;;;;0.40;0.30;;;;;;;5.29;84.18;102279.31;5073045;28;20473;-72
2022/03/26 00:41:38;;;;;;;0.60;0.60;;;;;;;5.29;83.75;102283.88;5073508;28;20503;-70
2022/03/26 00:44:05;;;;;;;0.40;0.40;;;;;;;5.30;83.41;102286.34;5073045;28;20998;-72
2022/03/26 00:46:32;;;;;;;0.63;0.63;;;;;;;5.21;84.34;102282.31;5073111;28;20938;-71
2022/03/26 00:48:59;;;;;;;1.80;1.70;;;;;;;5.24;84.14;102286.41;5073323;28;20464;-72
2022/03/26 00:51:27;;;;;;;0.50;0.40;;;;;;;5.19;83.56;102284.41;5073377;28;20796;-72
2022/03/26 00:53:54;;;;;;;0.40;0.30;;;;;;;5.19;83.85;102280.91;5073175;28;20437;-72
2022/03/26 00:56:20;;;;;;;0.40;0.40;;;;;;;5.00;84.77;102282.72;5073385;28;20438;-71
2022/03/26 00:58:47;;;;;;;0.40;0.30;;;;;;;5.03;84.10;102276.91;5073164;28;20462;-72
2022/03/26 01:01:13;;;;;;;0.53;0.53;;;;;;;5.01;84.80;102284.38;5072960;28;20467;-71
2022/03/26 01:03:40;;;;;;;0.40;0.40;;;;;;;4.97;86.01;102275.94;5073079;28;20481;-72
2022/03/26 01:06:06;;;;;;;0.97;0.97;;;;;;;5.04;86.48;102274.00;5073192;28;20515;-72
2022/03/26 01:08:34;;;;;;;0.40;0.30;;;;;;;5.05;87.53;102272.97;5073084;28;20523;-72
2022/03/26 01:11:00;;;;;;;0.40;0.30;;;;;;;5.14;87.34;102278.88;5073089;28;20437;-71
2022/03/26 01:13:28;;;;;;;0.40;0.30;;;;;;;5.06;88.19;102271.13;5073112;28;20441;-72
2022/03/26 01:15:55;;;;;;;0.40;0.30;;;;;;;4.98;88.28;102274.09;5073071;28;20448;-72
2022/03/26 01:18:22;;;;;;;0.40;0.30;;;;;;;5.08;87.73;102271.69;5073016;28;20477;-72
2022/03/26 01:20:48;;;;;;;0.40;0.30;;;;;;;5.15;88.17;102269.78;5072998;28;20452;-72
2022/03/26 01:23:19;;;;;;;3.70;3.10;;;;;;;5.14;87.91;102267.31;5072949;28;20566;-72
2022/03/26 01:25:47;;;;;;;0.40;0.40;;;;;;;5.12;88.00;102274.75;5073417;28;20460;-72
2022/03/26 01:28:14;;;;;;;0.40;0.30;;;;;;;4.99;88.72;102267.66;5072818;28;20469;-72
2022/03/26 01:30:41;;;;;;;4.47;4.10;;;;;;;4.96;88.09;102262.75;5073019;28;20548;-72
2022/03/26 01:33:07;;;;;;;0.47;0.30;;;;;;;4.98;87.21;102263.34;5073248;28;20469;-72
2022/03/26 01:35:33;;;;;;;0.40;0.30;;;;;;;4.99;85.96;102264.97;5072972;28;20445;-72
2022/03/26 01:38:01;;;;;;;0.57;0.57;;;;;;;5.04;85.28;102259.75;5072542;28;20860;-72
2022/03/26 01:40:28;;;;;;;1.90;1.80;;;;;;;5.01;84.65;102257.53;5072827;28;20451;-72
2022/03/26 01:42:56;;;;;;;0.40;0.30;;;;;;;4.87;84.67;102256.00;5072741;28;20888;-72
2022/03/26 01:45:23;;;;;;;0.40;0.30;;;;;;;4.85;84.82;102255.41;5072661;28;20437;-72
2022/03/26 01:47:50;;;;;;;0.40;0.30;;;;;;;4.82;84.92;102248.63;5072723;28;20469;-73
2022/03/26 01:50:17;;;;;;;3.07;2.87;;;;;;;4.88;84.83;102253.13;5072444;28;20850;-72
2022/03/26 01:52:43;;;;;;;0.40;0.40;;;;;;;4.85;84.45;102255.41;5072759;28;20436;-72
2022/03/26 01:55:10;;;;;;;9.53;4.13;;;;;;;4.85;84.66;102250.03;5072707;28;20445;-72
2022/03/26 01:57:36;;;;;;;0.40;0.30;;;;;;;4.83;84.41;102244.09;5072707;28;20464;-73
2022/03/26 02:00:07;;;;;;;0.40;0.30;;;;;;;4.80;84.01;102245.34;5072639;28;20472;-73
2022/03/26 02:02:34;;;;;;;0.40;0.30;;;;;;;4.68;85.03;102231.81;5072779;28;20503;-72
2022/03/26 02:05:00;;;;;;;0.97;0.97;;;;;;;4.75;86.24;102237.97;5072745;28;20607;-72
2022/03/26 02:07:27;;;;;;;1.13;1.07;;;;;;;4.79;86.99;102249.91;5076215;28;20468;-72
2022/03/26 02:09:53;;;;;;;0.60;0.60;;;;;;;4.75;88.12;102234.44;5076267;28;20491;-72
2022/03/26 02:12:25;;;;;;;0.47;0.40;;;;;;;4.74;88.69;102230.94;5075912;28;20841;-73
2022/03/26 02:14:52;;;;;;;15.00;10.50;;;;;;;4.80;88.01;102235.41;5075825;28;20939;-71
2022/03/26 02:17:20;;;;;;;0.60;0.60;;;;;;;4.78;88.43;102244.72;5076046;28;20591;-72
2022/03/26 02:19:51;;;;;;;0.40;0.30;;;;;;;4.59;90.40;102243.88;5076105;28;20445;-72
2022/03/26 02:22:20;;;;;;;0.40;0.30;;;;;;;4.56;90.04;102249.69;5076042;28;20790;-72
2022/03/26 02:24:47;;;;;;;48.57;18.07;;;;;;;4.70;89.46;102242.34;5075963;28;20473;-72
2022/03/26 02:27:13;;;;;;;0.63;0.63;;;;;;;4.60;89.72;102237.47;5075550;28;21044;-71
2022/03/26 02:29:40;;;;;;;2.83;2.67;;;;;;;4.70;88.71;102234.28;5077406;28;20449;-72
2022/03/26 02:32:07;;;;;;;1.13;1.13;;;;;;;4.68;88.09;102231.81;5075889;28;20445;-72
2022/03/26 02:34:34;;;;;;;0.90;0.90;;;;;;;4.68;86.73;102236.38;5075930;28;20441;-72
2022/03/26 02:37:02;;;;;;;0.40;0.30;;;;;;;4.59;85.72;102227.78;5075611;28;20445;-72
2022/03/26 02:39:29;;;;;;;0.50;0.30;;;;;;;4.56;86.38;102222.88;5075806;28;20499;-72
2022/03/26 02:41:55;;;;;;;0.40;0.40;;;;;;;4.63;86.50;102225.47;5075680;28;20445;-72
2022/03/26 02:44:22;;;;;;;0.40;0.30;;;;;;;4.57;88.22;102221.81;5075194;28;20487;-71
2022/03/26 02:46:49;;;;;;;0.60;0.60;;;;;;;4.57;88.64;102218.31;5075483;28;20441;-71
2022/03/26 02:49:16;;;;;;;0.40;0.30;;;;;;;4.47;87.49;102229.53;5075074;28;20491;-70
2022/03/26 02:51:43;;;;;;;0.40;0.30;;;;;;;4.46;86.99;102225.22;5075281;28;20462;-70
2022/03/26 02:54:18;;;;;;;0.57;0.57;;;;;;;4.43;86.58;102222.97;5075231;28;20854;-70
2022/03/26 02:56:45;;;;;;;0.40;0.30;;;;;;;4.34;86.76;102224.28;5074927;28;20899;-70
2022/03/26 02:59:11;;;;;;;0.40;0.30;;;;;;;4.35;86.91;102216.03;5075047;28;20465;-68
2022/03/26 03:01:38;;;;;;;0.40;0.30;;;;;;;4.24;87.14;102228.25;5075159;28;20437;-70
2022/03/26 03:04:05;;;;;;;0.40;0.30;;;;;;;4.29;86.43;102220.41;5075076;28;20509;-70
2022/03/26 03:06:31;;;;;;;0.40;0.30;;;;;;;4.26;86.60;102228.88;5075024;28;20465;-70
2022/03/26 03:08:58;;;;;;;0.40;0.30;;;;;;;4.21;87.83;102228.72;5074953;28;20472;-70
2022/03/26 03:11:26;;;;;;;0.50;0.30;;;;;;;4.22;87.12;102222.31;5074955;28;20501;-70
2022/03/26 03:13:52;;;;;;;0.97;0.97;;;;;;;4.25;86.46;102224.56;5074957;28;20875;-70
2022/03/26 03:16:19;;;;;;;0.40;0.30;;;;;;;4.23;86.92;102218.56;5074849;28;20442;-70
2022/03/26 03:18:45;;;;;;;0.40;0.40;;;;;;;4.29;86.34;102215.03;5074756;28;20465;-69
2022/03/26 03:21:12;;;;;;;2.30;2.20;;;;;;;4.28;85.96;102216.06;5074720;28;20449;-69
2022/03/26 03:23:38;;;;;;;0.40;0.30;;;;;;;4.25;86.47;102216.53;5074671;28;20481;-69
2022/03/26 03:26:05;;;;;;;0.40;0.30;;;;;;;4.16;86.53;102220.50;5074699;28;20520;-69
2022/03/26 03:28:33;;;;;;;0.63;0.63;;;;;;;4.12;89.25;102223.81;5074482;28;20469;-69
2022/03/26 03:30:59;;;;;;;0.40;0.30;;;;;;;4.23;88.56;102215.91;5074589;28;20446;-69
2022/03/26 03:33:26;;;;;;;0.40;0.30;;;;;;;4.13;90.16;102218.25;5074457;28;20445;-69
2022/03/26 03:35:53;;;;;;;0.50;0.30;;;;;;;4.29;89.67;102211.50;5074496;28;20963;-69
2022/03/26 03:38:19;;;;;;;0.40;0.30;;;;;;;4.35;89.85;102223.25;5074025;28;20477;-70
2022/03/26 03:40:46;;;;;;;0.70;0.70;;;;;;;4.35;90.31;102215.22;5074326;28;20491;-69
2022/03/26 03:43:12;;;;;;;0.40;0.30;;;;;;;4.30;90.54;102223.91;5074239;28;20433;-69
2022/03/26 03:45:40;;;;;;;0.40;0.40;;;;;;;4.26;91.77;102223.53;5073912;28;20448;-69
2022/03/26 03:48:07;;;;;;;2.03;1.93;;;;;;;4.29;91.98;102222.25;5074169;28;20453;-69
2022/03/26 03:50:34;;;;;;;0.43;0.30;;;;;;;4.34;91.87;102218.91;5074124;28;20437;-69
2022/03/26 03:53:00;;;;;;;0.40;0.30;;;;;;;4.35;91.97;102224.06;5074169;28;20477;-69
2022/03/26 03:55:27;;;;;;;0.40;0.30;;;;;;;4.30;91.75;102216.69;5074045;28;20437;-69
2022/03/26 03:57:54;;;;;;;0.40;0.30;;;;;;;4.33;90.36;102217.28;5074052;28;20469;-69
2022/03/26 04:00:21;;;;;;;0.40;0.30;;;;;;;4.34;89.54;102210.84;5073883;28;20445;-69
2022/03/26 04:02:49;;;;;;;0.50;0.30;;;;;;;4.42;88.47;102205.22;5073955;28;20570;-69
2022/03/26 04:05:16;;;;;;;0.40;0.30;;;;;;;4.40;89.33;102208.13;5073694;28;20496;-70
2022/03/26 04:07:42;;;;;;;0.40;0.40;;;;;;;4.41;89.20;102209.78;5073734;28;20476;-69
2022/03/26 04:10:10;;;;;;;0.40;0.30;;;;;;;4.36;89.43;102211.47;5073684;28;20441;-70
2022/03/26 04:12:38;;;;;;;1.80;1.70;;;;;;;4.35;88.67;102199.13;5073660;28;20441;-70
2022/03/26 04:15:06;;;;;;;0.60;0.60;;;;;;;4.36;89.50;102200.75;5073497;28;20445;-70
2022/03/26 04:17:33;;;;;;;0.40;0.30;;;;;;;4.38;89.41;102212.06;5073469;28;20469;-70
2022/03/26 04:20:01;;;;;;;0.40;0.30;;;;;;;4.37;91.51;102223.84;5073485;28;20468;-70
2022/03/26 04:22:28;;;;;;;0.50;0.40;;;;;;;4.50;92.50;102213.81;5073457;28;20445;-70
2022/03/26 04:24:54;;;;;;;2.10;2.00;;;;;;;4.63;92.30;102209.38;5073357;28;20477;-69
2022/03/26 04:27:21;;;;;;;0.50;0.40;;;;;;;4.63;91.38;102207.50;5073282;28;20474;-70
2022/03/26 04:29:47;;;;;;;3.17;2.87;;;;;;;4.71;91.78;102209.91;5072634;28;20441;-70
2022/03/26 04:32:14;;;;;;;3.50;3.30;;;;;;;4.82;93.56;102211.03;5073173;28;20445;-70
2022/03/26 04:34:40;;;;;;;0.40;0.30;;;;;;;4.93;94.10;102212.19;5073023;28;20938;-70
2022/03/26 04:37:08;;;;;;;0.50;0.50;;;;;;;5.00;94.19;102208.38;5072689;28;20438;-70
2022/03/26 04:39:35;;;;;;;0.40;0.30;;;;;;;5.05;93.77;102215.78;5073246;28;20434;-70
2022/03/26 04:42:01;;;;;;;0.40;0.37;;;;;;;5.08;93.80;102209.94;5072713;28;20801;-70
2022/03/26 04:44:28;;;;;;;0.40;0.30;;;;;;;5.09;93.41;102216.97;5073054;28;20480;-69
2022/03/26 04:46:55;;;;;;;0.40;0.30;;;;;;;5.10;93.21;102212.41;5073107;28;20468;-70
2022/03/26 04:49:22;;;;;;;0.40;0.30;;;;;;;5.12;92.63;102221.88;5072686;28;20441;-70
2022/03/26 04:51:48;;;;;;;0.40;0.30;;;;;;;5.10;92.68;102226.66;5072918;28;20936;-72
2022/03/26 04:54:16;;;;;;;0.40;0.30;;;;;;;5.11;92.91;102233.66;5072945;28;20939;-73
2022/03/26 04:56:42;;;;;;;0.57;0.40;;;;;;;5.15;93.15;102234.84;5073275;28;20496;-72
2022/03/26 04:59:09;;;;;;;0.40;0.30;;;;;;;5.20;92.81;102223.44;5073137;28;20465;-72
2022/03/26 05:01:35;;;;;;;0.40;0.30;;;;;;;5.20;92.28;102228.81;5073228;28;20437;-72
2022/03/26 05:04:02;;;;;;;0.40;0.30;;;;;;;5.15;91.31;102229.47;5072929;28;20489;-69
2022/03/26 05:06:28;;;;;;;0.40;0.30;;;;;;;5.17;90.73;102224.69;5072940;28;20472;-71
2022/03/26 05:08:55;;;;;;;2.50;2.27;;;;;;;5.20;92.02;102228.81;5072759;28;20863;-71
2022/03/26 05:11:22;;;;;;;0.50;0.40;;;;;;;5.22;91.77;102224.88;5073118;28;20491;-71
2022/03/26 05:13:49;;;;;;;0.40;0.30;;;;;;;5.14;90.29;102227.03;5073122;28;20444;-71
2022/03/26 05:16:16;;;;;;;0.40;0.30;;;;;;;5.10;89.74;102218.59;5073148;28;20453;-71
2022/03/26 05:18:42;;;;;;;0.40;0.30;;;;;;;5.04;88.76;102228.34;5072717;28;20518;-71
2022/03/26 05:21:09;;;;;;;0.40;0.30;;;;;;;5.10;89.89;102229.34;5072724;28;21004;-71
2022/03/26 05:23:36;;;;;;;0.40;0.30;;;;;;;5.05;89.40;102221.97;5072975;28;20449;-71
2022/03/26 05:26:03;;;;;;;0.40;0.30;;;;;;;5.01;89.98;102222.63;5073047;28;20516;-71
2022/03/26 05:28:31;;;;;;;0.40;0.30;;;;;;;5.15;90.88;102221.44;5072854;28;20460;-71
2022/03/26 05:30:58;;;;;;;0.40;0.30;;;;;;;5.22;92.76;102222.19;5072637;28;20959;-74
2022/03/26 05:33:25;;;;;;;0.40;0.30;;;;;;;5.40;93.44;102229.41;5072534;28;20938;-69
2022/03/26 05:35:52;;;;;;;1.07;1.07;;;;;;;5.41;94.21;102225.66;5072593;28;20468;-70
2022/03/26 05:38:18;;;;;;;0.40;0.30;;;;;;;5.52;94.00;102227.56;5072329;28;20578;-73
2022/03/26 05:40:45;;;;;;;0.40;0.30;;;;;;;5.60;94.15;102228.31;5073986;28;20499;-72
2022/03/26 05:43:12;;;;;;;0.40;0.40;;;;;;;5.76;93.75;102233.91;5076673;28;20447;-74
2022/03/26 05:45:39;;;;;;;0.40;0.30;;;;;;;5.86;93.66;102235.22;5076728;28;20481;-74
2022/03/26 05:48:07;;;;;;;0.40;0.30;;;;;;;5.91;93.53;102227.28;5076656;28;20461;-73
2022/03/26 05:50:34;;;;;;;0.40;0.30;;;;;;;6.05;93.09;102236.81;5076656;28;20481;-74
2022/03/26 05:53:01;;;;;;;0.60;0.60;;;;;;;6.14;92.96;102240.81;5076594;28;20444;-73
2022/03/26 05:55:28;;;;;;;1.10;1.00;;;;;;;6.25;92.47;102226.56;5076481;28;20449;-73
2022/03/26 05:57:55;;;;;;;0.40;0.30;;;;;;;6.33;92.20;102236.19;5076346;28;20544;-73
2022/03/26 06:00:21;;;;;;;2.40;2.30;;;;;;;6.40;91.76;102238.75;5076425;28;20863;-73
2022/03/26 06:02:49;;;;;;;0.40;0.30;;;;;;;6.49;91.63;102240.88;5076081;28;20935;-76
2022/03/26 06:05:17;;;;;;;0.40;0.30;;;;;;;6.57;90.71;102242.41;5075855;28;21002;-75
2022/03/26 06:07:43;;;;;;;0.50;0.30;;;;;;;6.64;90.31;102248.50;5076186;28;20522;-76
2022/03/26 06:10:09;;;;;;;6.13;1.83;;;;;;;6.76;90.06;102238.53;5076255;28;20452;-75
2022/03/26 06:12:36;;;;;;;0.90;0.90;;;;;;;6.85;89.79;102243.56;5076233;28;20453;-75
2022/03/26 06:15:03;;;;;;;0.40;0.40;;;;;;;6.95;89.62;102241.94;5076198;28;20459;-76
2022/03/26 06:17:30;;;;;;;0.40;0.30;;;;;;;7.10;89.29;102238.75;5076067;28;20465;-76
2022/03/26 06:19:58;;;;;;;0.40;0.30;;;;;;;7.15;89.08;102240.75;5076108;28;20440;-76
2022/03/26 06:22:24;;;;;;;6.17;2.00;;;;;;;7.24;88.76;102242.00;5075815;28;20460;-73
2022/03/26 06:24:51;;;;;;;1.00;0.90;;;;;;;7.36;88.77;102245.50;5075513;28;20888;-76
2022/03/26 06:27:18;;;;;;;0.40;0.30;;;;;;;7.44;88.19;102241.63;5075430;28;21111;-76
2022/03/26 06:29:44;;;;;;;0.40;0.30;;;;;;;7.56;87.57;102237.00;5075875;28;20544;-75
2022/03/26 06:32:10;;;;;;;0.40;0.40;;;;;;;7.61;87.80;102231.69;5075776;28;20837;-74
2022/03/26 06:34:37;;;;;;;0.40;0.40;;;;;;;7.70;87.24;102235.69;5075817;28;20437;-73
2022/03/26 06:37:05;;;;;;;0.40;0.30;;;;;;;7.75;87.20;102234.94;5075284;28;20967;-75
2022/03/26 06:39:32;;;;;;;1.23;1.23;;;;;;;7.87;86.62;102229.47;5075718;28;20422;-74
2022/03/26 06:41:58;;;;;;;2.10;2.00;;;;;;;7.95;86.31;102229.09;5075717;28;20445;-73
2022/03/26 06:44:25;;;;;;;0.70;0.70;;;;;;;8.06;85.92;102231.75;5075456;28;20456;-74
2022/03/26 06:46:51;;;;;;;0.40;0.30;;;;;;;8.13;85.84;102226.16;5075384;28;20445;-74
2022/03/26 06:49:18;;;;;;;17.27;9.20;;;;;;;8.17;85.73;102219.22;5075489;28;20441;-73
2022/03/26 06:51:45;;;;;;;0.40;0.30;;;;;;;8.27;85.49;102222.09;5075001;28;20460;-74
2022/03/26 06:54:13;;;;;;;0.40;0.30;;;;;;;8.35;85.19;102218.16;5075281;28;20481;-74
2022/03/26 06:56:40;;;;;;;0.50;0.50;;;;;;;8.43;85.32;102227.78;5075355;28;20445;-73
2022/03/26 06:59:06;;;;;;;0.40;0.30;;;;;;;8.54;84.93;102237.66;5074937;28;20465;-74
2022/03/26 07:01:33;;;;;;;0.50;0.40;;;;;;;8.64;84.66;102227.03;5075253;28;20491;-73
2022/03/26 07:03:59;;;;;;;0.50;0.30;;;;;;;8.70;84.40;102234.13;5075108;28;20444;-73
2022/03/26 07:06:26;;;;;;;0.40;0.30;;;;;;;8.78;84.31;102236.41;5075033;28;20485;-73
2022/03/26 07:08:53;;;;;;;0.40;0.30;;;;;;;8.93;83.79;102238.50;5074559;28;21009;-74
2022/03/26 07:11:21;;;;;;;0.40;0.30;;;;;;;9.07;83.02;102237.13;5075019;28;20532;-73
2022/03/26 07:13:48;;;;;;;0.40;0.30;;;;;;;9.22;82.45;102228.38;5074991;28;20536;-74
2022/03/26 07:16:14;;;;;;;0.40;0.30;;;;;;;9.35;81.85;102228.00;5074761;28;20449;-73
2022/03/26 07:18:41;;;;;;;0.40;0.30;;;;;;;9.44;81.36;102230.25;5074457;28;20465;-71
2022/03/26 07:21:08;;;;;;;5.50;3.00;;;;;;;9.54;80.58;102225.78;5074821;28;20503;-74
2022/03/26 07:23:35;;;;;;;0.40;0.30;;;;;;;9.70;80.17;102234.06;5073164;28;20482;-73
2022/03/26 07:26:01;;;;;;;0.40;0.30;;;;;;;9.84;79.14;102249.66;5073641;28;20493;-73
2022/03/26 07:28:29;;;;;;;0.40;0.30;;;;;;;9.97;78.16;102247.59;5073629;28;20469;-73
2022/03/26 07:30:56;;;;;;;0.40;0.30;;;;;;;10.05;78.49;102257.97;5073920;28;20495;-73
2022/03/26 07:33:22;;;;;;;0.40;0.30;;;;;;;10.09;78.27;102249.09;5074620;28;20445;-73
2022/03/26 07:35:48;;;;;;;0.80;0.80;;;;;;;10.20;77.27;102247.28;5074544;28;20516;-73
2022/03/26 07:38:15;;;;;;;0.70;0.70;;;;;;;10.32;76.63;102239.84;5074117;28;20878;-73
2022/03/26 07:40:41;;;;;;;0.40;0.30;;;;;;;10.43;76.23;102248.84;5073547;28;20874;-73
2022/03/26 07:43:08;;;;;;;1.43;1.33;;;;;;;10.51;76.37;102253.78;5073092;28;20449;-73
2022/03/26 07:45:37;;;;;;;1.07;1.07;;;;;;;10.60;75.50;102251.44;5073621;28;20484;-73
2022/03/26 07:48:04;;;;;;;0.50;0.50;;;;;;;10.73;75.15;102250.16;5073961;28;20879;-73
2022/03/26 07:50:31;;;;;;;0.40;0.30;;;;;;;10.88;74.07;102250.25;5074317;28;20448;-73
2022/03/26 07:52:58;;;;;;;0.40;0.30;;;;;;;10.90;73.11;102236.44;5073671;28;20438;-73
2022/03/26 07:55:24;;;;;;;0.40;0.30;;;;;;;11.01;72.78;102228.09;5074093;28;20631;-73
2022/03/26 07:57:51;;;;;;;0.93;0.93;;;;;;;11.02;73.07;102229.75;5073738;28;20484;-74
2022/03/26 08:00:17;;;;;;;0.40;0.30;;;;;;;11.11;73.03;102227.31;5073787;28;20492;-74
2022/03/26 08:02:45;;;;;;;0.40;0.30;;;;;;;11.25;72.58;102230.41;5073680;28;20449;-74
2022/03/26 08:05:12;;;;;;;0.40;0.30;;;;;;;11.25;72.57;102238.53;5073732;28;20489;-74
2022/03/26 08:07:38;;;;;;;0.40;0.30;;;;;;;11.32;71.86;102242.63;5073552;28;20535;-73
2022/03/26 08:10:06;;;;;;;4.10;3.80;;;;;;;11.36;72.20;102246.44;5073598;28;20536;-73
2022/03/26 08:12:32;;;;;;;0.40;0.30;;;;;;;11.42;71.52;102238.31;5073047;28;20445;-74
2022/03/26 08:14:59;;;;;;;0.83;0.83;;;;;;;11.45;72.27;102235.06;5073586;28;20869;-74
2022/03/26 08:17:28;;;;;;;1.80;1.70;;;;;;;11.55;72.07;102241.38;5073429;28;20469;-74
2022/03/26 08:19:56;;;;;;;0.50;0.30;;;;;;;11.71;71.37;102247.63;5073181;28;20456;-73
2022/03/26 08:22:23;;;;;;;2.70;2.50;;;;;;;11.83;71.08;102229.25;5072707;28;20524;-74
2022/03/26 08:24:49;;;;;;;0.40;0.30;;;;;;;11.88;71.25;102244.72;5073607;28;20437;-74
2022/03/26 08:27:16;;;;;;;1.03;1.03;;;;;;;11.97;70.59;102247.72;5073500;28;20465;-71
2022/03/26 08:29:42;;;;;;;0.40;0.27;;;;;;;11.96;71.30;102248.81;5075056;28;20449;-70
2022/03/26 08:32:09;;;;;;;0.40;0.30;;;;;;;12.11;70.65;102246.09;5072858;28;20446;-73
2022/03/26 08:34:35;;;;;;;0.40;0.20;;;;;;;12.19;70.16;102234.72;5073516;28;20449;-75
2022/03/26 08:37:04;;;;;;;1.63;1.53;;;;;;;12.32;69.88;102245.03;5073069;28;20455;-74
2022/03/26 08:39:30;;;;;;;0.40;0.30;;;;;;;12.45;69.24;102240.97;5073177;28;20438;-74
2022/03/26 08:41:56;;;;;;;0.50;0.40;;;;;;;12.65;68.91;102240.13;5073178;28;20441;-75
2022/03/26 08:44:23;;;;;;;0.40;0.30;;;;;;;12.81;67.66;102239.00;5073347;28;20456;-75
2022/03/26 08:46:49;;;;;;;0.40;0.30;;;;;;;12.94;68.36;102243.06;5072942;28;20477;-76
2022/03/26 08:49:16;;;;;;;0.40;0.30;;;;;;;13.07;66.59;102255.28;5073287;28;20466;-76
2022/03/26 08:51:42;;;;;;;1.07;0.97;;;;;;;13.07;66.37;102253.38;5073026;28;20449;-75
2022/03/26 08:54:10;;;;;;;0.40;0.30;;;;;;;13.27;66.36;102247.06;5073135;28;20441;-75
2022/03/26 08:56:37;;;;;;;0.40;0.30;;;;;;;13.41;65.52;102257.34;5072967;28;20469;-75
2022/03/26 08:59:03;;;;;;;0.40;0.30;;;;;;;13.38;65.31;102248.66;5072800;28;20461;-75
2022/03/26 09:01:29;;;;;;;0.80;0.80;;;;;;;13.39;66.81;102254.91;5072652;28;20467;-75
2022/03/26 09:03:56;;;;;;;0.40;0.30;;;;;;;13.49;65.10;102251.31;5072941;28;20857;-75
2022/03/26 09:06:22;;;;;;;0.40;0.30;;;;;;;13.58;64.93;102246.91;5072711;28;20539;-75
2022/03/26 09:08:50;;;;;;;0.40;0.30;;;;;;;13.68;65.07;102252.34;5073019;28;20453;-75
2022/03/26 09:11:18;;;;;;;0.40;0.30;;;;;;;13.83;64.59;102251.41;5073030;28;20445;-75
2022/03/26 09:13:45;;;;;;;0.40;0.30;;;;;;;14.00;64.35;102246.41;5073102;28;20820;-75
2022/03/26 09:16:11;;;;;;;0.40;0.30;;;;;;;14.07;64.42;102248.78;5072251;28;20847;-75
2022/03/26 09:18:38;;;;;;;0.40;0.30;;;;;;;14.33;64.19;102263.84;5072551;28;20465;-75
2022/03/26 09:21:05;;;;;;;0.40;0.30;;;;;;;14.58;63.25;102249.22;5073061;28;20437;-75
2022/03/26 09:23:32;;;;;;;0.40;0.30;;;;;;;14.55;63.25;102254.44;5072788;28;20536;-75
2022/03/26 09:25:59;;;;;;;0.60;0.40;;;;;;;14.54;63.21;102269.19;5073005;28;20481;-75
2022/03/26 09:28:27;;;;;;;0.40;0.30;;;;;;;14.58;62.18;102265.59;5073392;28;20474;-75
2022/03/26 09:30:54;;;;;;;0.40;0.30;;;;;;;14.25;64.06;102259.00;5073095;28;20426;-73
2022/03/26 09:33:21;;;;;;;0.40;0.30;;;;;;;13.98;64.74;102258.66;5072640;28;20951;-77
2022/03/26 09:35:48;;;;;;;0.40;0.30;;;;;;;13.85;65.68;102269.09;5072673;28;20452;-76
2022/03/26 09:38:14;;;;;;;0.40;0.30;;;;;;;13.57;67.22;102267.06;5072162;28;20481;-77
2022/03/26 09:40:43;;;;;;;0.40;0.40;;;;;;;13.68;66.82;102252.34;5073246;28;20441;-77
2022/03/26 09:43:10;;;;;;;0.40;0.23;;;;;;;13.35;68.26;102260.09;5072161;28;20536;-77
2022/03/26 09:45:38;;;;;;;0.40;0.30;;;;;;;13.53;67.60;102260.56;5072094;28;21025;-77
2022/03/26 09:48:05;;;;;;;0.60;0.40;;;;;;;13.82;66.59;102258.78;5071491;28;20465;-76
2022/03/26 09:50:32;;;;;;;0.40;0.30;;;;;;;13.89;66.30;102264.72;5070951;28;20441;-76
2022/03/26 09:52:58;;;;;;;0.40;0.30;;;;;;;13.99;65.62;102271.19;5071832;28;20461;-76
2022/03/26 09:55:25;;;;;;;0.40;0.30;;;;;;;14.00;65.83;102268.19;5072171;28;20445;-76
2022/03/26 09:57:52;;;;;;;0.40;0.30;;;;;;;14.08;65.78;102266.78;5072171;28;20843;-77
2022/03/26 10:00:19;;;;;;;0.40;0.30;;;;;;;14.07;65.47;102265.16;5072502;28;20458;-77
2022/03/26 10:02:47;;;;;;;0.40;0.30;;;;;;;14.09;65.91;102265.69;5072376;28;20807;-77
2022/03/26 10:05:18;;;;;;;0.80;0.80;;;;;;;14.05;65.83;102262.72;5072491;28;20495;-76
2022/03/26 10:07:46;;;;;;;0.40;0.30;;;;;;;13.97;66.57;102259.78;5072040;28;20465;-76
2022/03/26 10:10:22;;;;;;;0.40;0.23;;;;;;;14.13;66.37;102264.84;5072242;28;20482;-76
2022/03/26 10:12:51;;;;;;;0.40;0.30;;;;;;;14.16;65.62;102257.19;5072092;28;20448;-77
2022/03/26 10:15:17;;;;;;;0.50;0.30;;;;;;;14.24;65.82;102257.38;5072031;28;20473;-77
2022/03/26 10:17:44;;;;;;;0.40;0.30;;;;;;;14.08;67.51;102255.91;5071075;28;21069;-77
2022/03/26 10:20:14;;;;;;;0.40;0.30;;;;;;;13.95;68.91;102253.81;5072048;28;21009;-76
2022/03/26 10:22:42;;;;;;;0.53;0.50;;;;;;;13.94;68.93;102250.25;5071604;28;20452;-76
2022/03/26 10:25:10;;;;;;;0.40;0.30;;;;;;;14.00;68.01;102251.03;5072047;28;20491;-75
2022/03/26 10:27:39;;;;;;;0.40;0.30;;;;;;;13.97;68.50;102254.31;5074252;28;20485;-77
2022/03/26 10:30:07;;;;;;;0.40;0.30;;;;;;;13.88;69.03;102257.63;5075723;28;20437;-76
2022/03/26 10:32:45;;;;;;;0.40;0.30;;;;;;;13.73;69.45;102256.94;5075626;28;20935;-76
2022/03/26 10:35:15;;;;;;;0.40;0.30;;;;;;;13.70;69.83;102258.28;5075610;28;20441;-76
2022/03/26 10:37:44;;;;;;;0.40;0.30;;;;;;;13.92;69.58;102249.72;5065677;28;20485;-76
2022/03/26 10:40:17;;;;;;;0.40;0.30;;;;;;;13.88;69.84;102257.63;5075354;28;20460;-76
2022/03/26 10:42:43;;;;;;;0.40;0.30;;;;;;;13.89;69.45;102255.72;5075111;28;20441;-76
2022/03/26 10:45:14;;;;;;;0.40;0.30;;;;;;;14.04;68.54;102261.09;5075653;28;20445;-76
2022/03/26 10:47:41;;;;;;;0.40;0.30;;;;;;;13.95;69.27;102261.97;5075639;28;20508;-77
2022/03/26 10:50:08;;;;;;;0.40;0.30;;;;;;;13.98;68.61;102266.84;5075532;28;20524;-74
2022/03/26 10:52:36;;;;;;;0.40;0.30;;;;;;;14.05;69.02;102254.53;5074671;28;20437;-76
2022/03/26 10:55:12;;;;;;;0.40;0.30;;;;;;;14.22;68.24;102256.88;5073364;28;20452;-76
2022/03/26 10:57:39;;;;;;;0.40;0.30;;;;;;;14.42;67.72;102255.06;5057339;28;20454;-75
2022/03/26 11:00:07;;;;;;;0.40;0.30;;;;;;;14.11;68.72;102255.31;5055215;28;20454;-77
2022/03/26 11:02:33;;;;;;;0.40;0.30;;;;;;;13.91;69.70;102258.19;5055329;28;20438;-75
2022/03/26 11:05:00;;;;;;;0.40;0.30;;;;;;;14.06;69.68;102252.63;5071954;28;20441;-76
2022/03/26 11:07:27;;;;;;;0.40;0.30;;;;;;;14.22;69.02;102264.25;5074871;28;20493;-77
2022/03/26 11:09:58;;;;;;;0.40;0.30;;;;;;;14.23;68.69;102253.03;5074813;28;20441;-77
2022/03/26 11:12:26;;;;;;;0.67;0.67;;;;;;;14.35;68.47;102258.13;5074992;28;20786;-75
2022/03/26 11:14:54;;;;;;;0.87;0.80;;;;;;;14.26;68.84;102257.94;5074733;28;20445;-76
2022/03/26 11:17:31;;;;;;;0.40;0.30;;;;;;;14.23;69.06;102255.78;5074266;28;20534;-76
2022/03/26 11:20:15;;;;;;;0.40;0.23;;;;;;;14.32;69.24;102259.50;5074340;28;20442;-77
2022/03/26 11:23:12;;;;;;;0.40;0.30;;;;;;;14.37;69.25;102259.47;5074528;28;20422;-76
2022/03/26 11:26:16;;;;;;;0.40;0.30;;;;;;;14.35;69.05;102256.22;5053736;28;20456;-77
2022/03/26 11:28:59;;;;;;;0.40;0.30;;;;;;;14.13;70.43;102253.94;5054639;28;20520;-76